Time;durP1;ratioP1;P1;durP2;ratioP2;P2;SDS_P1;SDS_P2;PMS_P1;PMS_P2;Temp;Humidity;BMP_temperature;BMP_pressure;BME280_temperature;BME280_humidity;BME280_pressure;Samples;Min_cycle;Max_cycle;Signal;HPM_P1;HPM_P2
2022/03/07 00:02:12;;;;;;;;;70.67;54.33;;;;;4.57;50.04;101671.63;5057943;28;45489;-81
2022/03/07 00:04:43;;;;;;;;;69.67;57.33;;;;;4.54;49.74;101669.72;5059216;28;45400;-75
2022/03/07 00:07:08;;;;;;;;;67.67;55.00;;;;;4.28;50.35;101639.84;5060089;28;45422;-78
2022/03/07 00:09:34;;;;;;;;;64.67;51.67;;;;;4.50;50.29;101665.22;5058327;28;45452;-81
2022/03/07 00:12:03;;;;;;;;;65.00;54.67;;;;;4.42;50.38;101652.63;5057429;28;46876;-79
2022/03/07 00:14:34;;;;;;;;;73.33;54.00;;;;;4.46;50.64;101664.97;5057876;28;45374;-75
2022/03/07 00:17:06;;;;;;;;;70.00;54.67;;;;;4.42;50.61;101666.56;5058042;28;45449;-73
2022/03/07 00:19:31;;;;;;;;;62.67;52.33;;;;;4.29;50.56;101651.16;5057172;28;45409;-74
2022/03/07 00:22:02;;;;;;;;;69.00;56.00;;;;;4.35;50.77;101667.09;5056981;28;45406;-73
2022/03/07 00:24:34;;;;;;;;;62.67;51.00;;;;;4.16;50.36;101635.75;5056715;28;45527;-73
2022/03/07 00:26:59;;;;;;;;;64.67;53.33;;;;;4.32;50.59;101672.16;5057246;28;45425;-76
2022/03/07 00:29:25;;;;;;;;;74.33;56.33;;;;;4.03;51.03;101630.78;5038914;28;46888;-73
2022/03/07 00:31:53;;;;;;;;;71.33;56.00;;;;;4.28;50.92;101675.44;5057328;28;45469;-73
2022/03/07 00:34:25;;;;;;;;;67.67;54.33;;;;;4.27;51.19;101686.69;5057214;28;45518;-74
2022/03/07 00:36:51;;;;;;;;;65.67;54.67;;;;;4.26;51.26;101680.59;5059433;28;46144;-74
2022/03/07 00:39:17;;;;;;;;;66.67;53.00;;;;;4.22;51.25;101673.44;5039054;28;46698;-76
2022/03/07 00:41:46;;;;;;;;;71.00;57.33;;;;;4.18;50.90;101681.91;5056184;28;45291;-73
2022/03/07 00:44:14;;;;;;;;;66.67;54.00;;;;;4.13;51.18;101673.00;5056567;28;45529;-74
2022/03/07 00:46:40;;;;;;;;;61.33;48.67;;;;;4.17;51.35;101676.63;5057630;28;45525;-74
2022/03/07 00:49:06;;;;;;;;;41.00;37.00;;;;;4.14;51.35;101666.97;5057746;28;46348;-75
2022/03/07 00:51:35;;;;;;;;;62.00;51.67;;;;;3.97;51.59;101655.72;5056378;28;45343;-72
2022/03/07 00:54:00;;;;;;;;;65.33;53.33;;;;;3.52;51.59;101581.38;5056296;28;45480;-85
2022/03/07 00:56:26;;;;;;;;;65.33;54.33;;;;;4.05;51.47;101674.34;5056856;28;45759;-79
2022/03/07 00:58:51;;;;;;;;;68.67;54.00;;;;;3.83;51.47;101641.13;5057492;28;45466;-77
2022/03/07 01:01:18;;;;;;;;;64.00;50.33;;;;;3.89;51.65;101654.44;5054415;28;45451;-80
2022/03/07 01:03:43;;;;;;;;;69.67;53.67;;;;;3.71;51.80;101633.59;5056023;28;45506;-81
2022/03/07 01:06:15;;;;;;;;;57.33;47.67;;;;;3.99;51.96;101674.91;5057484;28;45505;-74
2022/03/07 01:08:41;;;;;;;;;64.33;53.33;;;;;3.97;52.13;101667.84;5056251;28;46269;-80
2022/03/07 01:11:06;;;;;;;;;68.67;52.00;;;;;3.94;52.07;101672.94;5056202;28;45465;-79
2022/03/07 01:13:32;;;;;;;;;64.67;52.00;;;;;3.92;51.66;101677.19;5059043;28;45543;-80
2022/03/07 01:15:57;;;;;;;;;73.33;52.33;;;;;3.88;52.49;101670.91;5057995;28;45480;-80
2022/03/07 01:18:23;;;;;;;;;60.67;50.67;;;;;3.75;51.80;101647.69;5058862;28;45999;-78
2022/03/07 01:20:48;;;;;;;;;51.67;47.00;;;;;3.83;51.84;101661.09;5061828;28;45404;-79
2022/03/07 01:23:14;;;;;;;;;64.33;51.00;;;;;3.84;52.70;101663.75;5039802;28;45278;-81
2022/03/07 01:25:40;;;;;;;;;63.00;52.00;;;;;3.75;52.36;101647.69;5039218;28;45414;-83
2022/03/07 01:28:06;;;;;;;;;64.00;51.33;;;;;3.81;52.16;101660.97;5055588;28;46408;-78
2022/03/07 01:30:31;;;;;;;;;63.33;51.33;;;;;3.79;52.15;101657.41;5059354;28;45474;-77
2022/03/07 01:32:57;;;;;;;;;58.00;46.67;;;;;3.61;52.11;101630.44;5057354;28;45454;-79
2022/03/07 01:35:23;;;;;;;;;65.67;50.67;;;;;3.76;52.22;101661.59;5058061;28;45519;-82
2022/03/07 01:37:49;;;;;;;;;67.67;53.00;;;;;3.65;52.48;101640.22;5057189;28;45957;-84
2022/03/07 01:40:14;;;;;;;;;61.00;45.33;;;;;3.65;52.70;101645.44;5054454;28;45590;-82
2022/03/07 01:42:39;;;;;;;;;61.00;48.00;;;;;3.74;52.63;101664.13;5040023;28;45498;-82
2022/03/07 01:45:18;;;;;;;;;58.67;47.67;;;;;3.68;52.24;101656.00;5057389;28;45505;-83
2022/03/07 01:47:44;;;;;;;;;53.33;47.00;;;;;3.68;52.44;101658.59;5056485;28;46044;-80
2022/03/07 01:50:12;;;;;;;;;57.00;49.67;;;;;3.64;52.92;101654.97;5055529;28;45989;-78
2022/03/07 01:52:39;;;;;;;;;61.33;48.67;;;;;3.60;52.67;101644.28;5059251;28;45430;-83
2022/03/07 01:55:08;;;;;;;;;66.33;53.33;;;;;3.50;52.80;101631.63;5065127;28;45418;-77
2022/03/07 01:57:46;;;;;;;;;69.33;52.33;;;;;3.45;52.78;101634.03;5060456;28;46359;-81
2022/03/07 02:00:22;;;;;;;;;61.67;50.33;;;;;3.56;52.39;101651.06;5055455;28;45414;-81
2022/03/07 02:02:48;;;;;;;;;59.00;47.33;;;;;3.54;52.98;101651.81;5054748;28;45628;-84
2022/03/07 02:05:14;;;;;;;;;63.00;51.67;;;;;3.51;53.19;101646.44;5055986;28;45493;-80
2022/03/07 02:07:40;;;;;;;;;57.67;49.00;;;;;3.48;53.29;101646.28;5055694;28;46689;-78
2022/03/07 02:10:07;;;;;;;;;62.00;49.67;;;;;3.30;52.82;101609.81;5054747;28;45568;-77
2022/03/07 02:12:33;;;;;;;;;57.67;47.00;;;;;3.29;53.01;101610.63;5056820;28;45351;-77
2022/03/07 02:14:58;;;;;;;;;60.00;49.67;;;;;3.34;53.02;101615.22;5056824;28;45460;-82
2022/03/07 02:17:23;;;;;;;;;55.67;46.00;;;;;3.41;53.32;101632.94;5055661;28;46460;-76
2022/03/07 02:19:49;;;;;;;;;59.33;48.67;;;;;3.29;53.43;101616.72;5055366;28;45703;-78
2022/03/07 02:22:16;;;;;;;;;62.00;50.00;;;;;3.22;53.37;101598.09;5056786;28;45355;-74
2022/03/07 02:24:42;;;;;;;;;52.67;45.67;;;;;3.33;53.09;101616.03;5055459;28;45996;-77
2022/03/07 02:27:09;;;;;;;;;59.67;44.67;;;;;3.35;53.40;101619.66;5055883;28;45470;-77
2022/03/07 02:29:35;;;;;;;;;61.00;48.67;;;;;3.32;53.31;101618.56;5056434;28;45736;-75
2022/03/07 02:32:02;;;;;;;;;54.00;46.00;;;;;3.29;53.12;101611.50;5059937;28;45484;-74
2022/03/07 02:34:28;;;;;;;;;54.33;45.00;;;;;3.15;53.48;101595.16;5056480;28;45331;-78
2022/03/07 02:36:54;;;;;;;;;51.33;46.00;;;;;3.33;53.64;101616.03;5055495;28;47042;-80
2022/03/07 02:39:19;;;;;;;;;58.67;45.67;;;;;3.31;52.98;101617.69;5058160;28;45371;-82
2022/03/07 02:41:45;;;;;;;;;62.00;46.67;;;;;3.29;53.20;101608.91;5057942;28;45325;-84
2022/03/07 02:44:11;;;;;;;;;55.33;46.33;;;;;3.23;53.23;101603.38;5057731;28;45334;-84
2022/03/07 02:46:37;;;;;;;;;47.67;38.67;;;;;3.20;52.99;101600.63;5069208;28;47621;-83
2022/03/07 02:49:03;;;;;;;;;61.33;48.33;;;;;3.25;53.37;101611.25;5055300;28;45498;-80
2022/03/07 02:51:29;;;;;;;;;54.67;46.67;;;;;3.22;53.59;101604.19;5055393;28;45547;-79
2022/03/07 02:53:54;;;;;;;;;61.67;49.33;;;;;3.15;53.43;101597.78;5058262;28;45535;-81
2022/03/07 02:56:20;;;;;;;;;56.00;48.33;;;;;3.20;53.87;101607.53;5056558;28;46087;-79
2022/03/07 02:58:45;;;;;;;;;54.67;45.33;;;;;3.01;53.41;101570.16;5065431;28;45513;-80
2022/03/07 03:01:11;;;;;;;;;52.33;44.33;;;;;3.13;53.32;101593.31;5055542;28;45421;-83
2022/03/07 03:03:36;;;;;;;;;58.33;48.00;;;;;3.13;53.59;101599.41;5055668;28;45376;-85
2022/03/07 03:06:03;;;;;;;;;57.33;46.33;;;;;3.09;53.61;101588.78;5037739;28;46353;-80
2022/03/07 03:08:28;;;;;;;;;55.00;47.33;;;;;3.13;53.56;101601.13;5057969;28;45432;-78
2022/03/07 03:10:57;;;;;;;;;60.00;48.00;;;;;3.07;53.93;101593.00;5055100;28;45377;-75
2022/03/07 03:13:23;;;;;;;;;52.67;46.00;;;;;3.05;53.43;101582.50;5055983;28;45353;-78
2022/03/07 03:15:49;;;;;;;;;59.33;45.00;;;;;2.97;53.79;101575.13;5057983;28;45441;-80
2022/03/07 03:18:16;;;;;;;;;56.00;41.00;;;;;3.08;53.80;101594.81;5058940;28;45540;-80
2022/03/07 03:20:45;;;;;;;;;52.00;44.00;;;;;3.07;53.50;101600.78;5058919;28;45513;-83
2022/03/07 03:23:11;;;;;;;;;49.00;42.33;;;;;3.02;53.32;101595.38;5058561;28;45469;-83
2022/03/07 03:25:37;;;;;;;;;58.00;46.00;;;;;2.99;53.59;101590.03;5058284;28;46313;-82
2022/03/07 03:28:02;;;;;;;;;49.67;42.67;;;;;2.98;53.93;101590.84;5058245;28;45378;-78
2022/03/07 03:30:28;;;;;;;;;45.33;42.00;;;;;2.95;54.27;101590.66;5058652;28;45413;-75
2022/03/07 03:32:53;;;;;;;;;56.75;43.00;;;;;2.81;54.48;101568.25;5064219;28;45548;-77
2022/03/07 03:35:19;;;;;;;;;42.67;34.00;;;;;2.69;54.38;101550.28;5078116;27;46227;-80
2022/03/07 03:37:45;;;;;;;;;54.67;43.67;;;;;2.89;54.31;101590.38;5061034;28;45477;-82
2022/03/07 03:40:11;;;;;;;;;46.67;43.67;;;;;2.86;54.72;101585.88;5058350;28;45528;-79
2022/03/07 03:42:38;;;;;;;;;57.33;46.33;;;;;2.75;54.34;101571.41;5059938;28;45441;-79
2022/03/07 03:45:05;;;;;;;;;58.00;46.33;;;;;2.85;54.80;101596.22;5058393;28;46698;-81
2022/03/07 03:47:35;;;;;;;;;57.00;46.67;;;;;2.68;54.70;101571.00;5060263;28;46340;-76
2022/03/07 03:50:02;;;;;;;;;53.33;43.67;;;;;2.77;54.27;101588.00;5057402;28;45520;-77
2022/03/07 03:52:28;;;;;;;;;57.67;46.00;;;;;2.61;54.64;101562.00;5041857;28;46048;-76
2022/03/07 03:54:55;;;;;;;;;61.00;49.33;;;;;2.76;54.29;101596.63;5058009;28;46432;-78
2022/03/07 03:57:21;;;;;;;;;50.67;41.67;;;;;2.74;54.35;101590.44;5059252;28;46348;-84
2022/03/07 03:59:47;;;;;;;;;59.33;44.67;;;;;2.72;54.76;101599.88;5058015;28;45425;-78
2022/03/07 04:02:12;;;;;;;;;48.00;44.00;;;;;2.50;54.66;101568.34;5058856;28;46758;-76
2022/03/07 04:04:37;;;;;;;;;49.33;44.00;;;;;2.55;54.91;101578.19;5057456;28;47096;-79
2022/03/07 04:07:03;;;;;;;;;52.33;43.67;;;;;2.56;54.78;101579.97;5057098;28;45485;-81
2022/03/07 04:09:28;;;;;;;;;56.00;45.33;;;;;2.64;55.23;101603.78;5064753;28;45653;-77
2022/03/07 04:11:54;;;;;;;;;49.00;41.75;;;;;2.62;55.26;101605.41;5058544;28;45575;-76
2022/03/07 04:14:20;;;;;;;;;56.75;44.50;;;;;2.53;54.99;101591.94;5057878;28;47286;-78
2022/03/07 04:16:45;;;;;;;;;47.67;41.33;;;;;2.39;55.32;101570.38;5049391;28;45729;-79
2022/03/07 04:19:12;;;;;;;;;53.00;46.00;;;;;2.55;55.45;101605.91;5056280;28;45507;-79
2022/03/07 04:21:39;;;;;;;;;54.33;47.00;;;;;2.51;55.50;101590.91;5058522;28;47041;-78
2022/03/07 04:24:09;;;;;;;;;53.67;45.67;;;;;2.45;55.30;101588.00;5056276;28;46260;-81
2022/03/07 04:26:34;;;;;;;;;55.00;45.75;;;;;2.54;55.71;101602.41;5057222;28;45866;-77
2022/03/07 04:29:00;;;;;;;;;56.50;47.50;;;;;2.54;55.13;101601.50;5057744;28;45523;-78
2022/03/07 04:31:26;;;;;;;;;55.67;48.00;;;;;2.50;55.13;101597.84;5059214;28;45476;-79
2022/03/07 04:33:52;;;;;;;;;50.75;43.25;;;;;2.40;55.61;101577.34;5057045;28;46253;-79
2022/03/07 04:36:20;;;;;;;;;52.00;44.67;;;;;2.48;55.51;101601.16;5040522;28;45570;-85
2022/03/07 04:38:48;;;;;;;;;64.00;45.67;;;;;2.44;55.30;101607.94;5057780;28;45334;-77
2022/03/07 04:41:14;;;;;;;;;55.00;46.25;;;;;2.42;55.82;101601.75;5057891;28;45504;-78
2022/03/07 04:43:39;;;;;;;;;51.00;41.33;;;;;1.90;56.06;101528.72;5059981;28;46294;-80
2022/03/07 04:46:07;;;;;;;;;47.33;43.67;;;;;2.25;55.89;101590.44;5063318;28;45503;-82
2022/03/07 04:48:33;;;;;;;;;56.50;47.50;;;;;2.32;55.72;101591.63;5057408;28;45476;-80
2022/03/07 04:50:58;;;;;;;;;43.67;33.67;;;;;2.12;55.49;101569.78;5056888;28;45559;-80
2022/03/07 04:53:24;;;;;;;;;50.00;40.00;;;;;2.34;55.94;101615.16;5057227;28;46010;-78
2022/03/07 04:55:49;;;;;;;;;47.00;42.67;;;;;2.19;55.71;101590.09;5057099;28;45437;-78
2022/03/07 04:58:15;;;;;;;;;57.75;44.75;;;;;2.21;56.02;101593.66;5057943;28;45372;-80
2022/03/07 05:00:40;;;;;;;;;58.00;46.75;;;;;2.32;56.45;101622.84;5060040;28;45450;-80
2022/03/07 05:03:05;;;;;;;;;53.25;38.50;;;;;2.31;56.26;101610.66;5059631;28;47114;-83
2022/03/07 05:05:31;;;;;;;;;55.00;44.00;;;;;2.30;55.70;101619.25;5057354;28;45257;-80
2022/03/07 05:07:56;;;;;;;;;50.00;43.50;;;;;2.19;56.36;101603.09;5040263;28;45441;-82
2022/03/07 05:10:22;;;;;;;;;54.00;44.33;;;;;2.27;55.90;101619.09;5059113;28;45279;-81
2022/03/07 05:12:48;;;;;;;;;52.75;44.00;;;;;2.23;56.57;101612.88;5057172;28;45456;-78
2022/03/07 05:15:14;;;;;;;;;58.00;45.33;;;;;2.20;56.42;101617.88;5056028;28;46692;-77
2022/03/07 05:17:42;;;;;;;;;48.00;43.75;;;;;2.21;55.97;101616.16;5056967;28;45524;-85
2022/03/07 05:20:09;;;;;;;;;49.25;42.75;;;;;2.19;56.14;101621.28;5060609;28;45519;-76
2022/03/07 05:22:34;;;;;;;;;56.50;43.50;;;;;2.13;56.06;101612.25;5058838;28;45403;-80
2022/03/07 05:24:59;;;;;;;;;49.25;44.25;;;;;2.12;56.42;101607.84;5056819;28;45448;-78
2022/03/07 05:27:25;;;;;;;;;51.67;43.67;;;;;2.15;56.51;101613.25;5057235;28;44846;-83
2022/03/07 05:29:50;;;;;;;;;57.00;47.50;;;;;2.14;56.47;101614.97;5059447;28;45520;-80
2022/03/07 05:32:16;;;;;;;;;53.50;44.25;;;;;2.02;56.31;101590.88;5056635;28;45743;-79
2022/03/07 05:34:41;;;;;;;;;46.50;43.00;;;;;1.90;56.48;101572.00;5038943;28;45371;-77
2022/03/07 05:37:06;;;;;;;;;56.25;44.75;;;;;1.90;56.41;101570.31;5055451;28;45529;-77
2022/03/07 05:39:32;;;;;;;;;52.00;44.25;;;;;1.92;56.50;101589.47;5056411;28;45564;-79
2022/03/07 05:41:57;;;;;;;;;51.25;44.25;;;;;2.00;56.36;101602.88;5055803;28;45376;-82
2022/03/07 05:44:23;;;;;;;;;56.00;47.25;;;;;2.09;56.38;101621.59;5057218;28;45433;-75
2022/03/07 05:46:48;;;;;;;;;52.00;46.00;;;;;1.86;56.76;101581.34;5056470;28;45367;-85
2022/03/07 05:49:13;;;;;;;;;58.25;47.25;;;;;2.05;56.79;101605.72;5055638;28;45409;-86
2022/03/07 05:51:41;;;;;;;;;46.75;44.25;;;;;1.94;56.82;101599.94;5055125;28;47251;-87
2022/03/07 05:54:06;;;;;;;;;51.50;45.50;;;;;2.04;56.46;101622.13;5058143;28;45465;-83
2022/03/07 05:56:31;;;;;;;;;53.00;42.75;;;;;2.02;56.54;101621.16;5074286;28;45519;-84
2022/03/07 05:58:57;;;;;;;;;52.00;43.25;;;;;2.00;56.97;101623.66;5054875;28;45510;-85
2022/03/07 06:01:22;;;;;;;;;47.75;44.25;;;;;1.98;56.90;101622.69;5055670;28;46931;-85
2022/03/07 06:03:48;;;;;;;;;55.50;45.50;;;;;1.49;57.16;101531.63;5055482;28;45560;-83
2022/03/07 06:06:13;;;;;;;;;53.50;43.25;;;;;1.96;56.67;101622.63;5055664;28;45946;-83
2022/03/07 06:08:38;;;;;;;;;56.25;44.25;;;;;1.78;56.74;101589.53;5037560;28;45558;-80
2022/03/07 06:11:05;;;;;;;;;57.75;45.00;;;;;1.98;56.66;101625.28;5054013;28;48090;-80
2022/03/07 06:13:31;;;;;;;;;50.25;46.00;;;;;1.93;56.59;101618.94;5057778;28;45421;-79
2022/03/07 06:15:56;;;;;;;;;52.50;46.00;;;;;1.86;56.96;101620.31;5054369;28;45335;-81
2022/03/07 06:18:22;;;;;;;;;58.50;46.25;;;;;1.86;56.74;101609.94;5057311;28;45469;-82
2022/03/07 06:20:47;;;;;;;;;57.00;44.50;;;;;1.97;56.22;101634.81;5057276;28;46258;-77
2022/03/07 06:23:12;;;;;;;;;57.75;45.25;;;;;1.83;57.03;101603.63;5058822;28;45534;-78
2022/03/07 06:25:38;;;;;;;;;52.75;43.50;;;;;1.69;56.00;101579.50;5057678;28;45883;-79
2022/03/07 06:28:04;;;;;;;;;53.50;45.50;;;;;1.95;56.25;101631.22;5061553;28;45664;-77
2022/03/07 06:30:29;;;;;;;;;55.00;48.25;;;;;2.00;55.92;101632.34;5058433;28;46069;-79
2022/03/07 06:32:55;;;;;;;;;50.50;45.00;;;;;2.03;56.00;101622.94;5058619;28;45560;-80
2022/03/07 06:35:21;;;;;;;;;46.75;43.25;;;;;2.04;56.33;101636.00;5057431;28;45433;-80
2022/03/07 06:37:51;;;;;;;;;62.00;48.75;;;;;2.07;55.67;101635.31;5055541;28;45495;-79
2022/03/07 06:40:19;;;;;;;;;55.00;46.00;;;;;2.05;56.11;101623.91;5057236;28;46275;-76
2022/03/07 06:42:46;;;;;;;;;52.50;45.00;;;;;2.08;55.75;101635.41;5060721;28;45618;-81
2022/03/07 06:45:13;;;;;;;;;59.25;50.00;;;;;2.13;55.87;101633.94;5056807;28;45518;-86
2022/03/07 06:47:39;;;;;;;;;53.00;43.50;;;;;2.14;55.59;101640.94;5058276;28;45755;-77
2022/03/07 06:50:05;;;;;;;;;53.25;45.00;;;;;2.22;55.70;101644.84;5058827;28;45468;-74
2022/03/07 06:52:31;;;;;;;;;46.50;42.00;;;;;2.25;55.56;101652.81;5059890;28;45472;-85
2022/03/07 06:54:57;;;;;;;;;58.50;48.75;;;;;2.16;55.57;101634.13;5061886;28;45343;-75
2022/03/07 06:57:23;;;;;;;;;52.75;43.75;;;;;2.26;55.05;101640.72;5059177;28;45402;-73
2022/03/07 06:59:49;;;;;;;;;55.25;44.75;;;;;2.23;55.61;101627.53;5059592;28;46716;-75
2022/03/07 07:02:14;;;;;;;;;46.75;43.50;;;;;2.34;55.03;101638.56;5061208;28;45439;-76
2022/03/07 07:04:40;;;;;;;;;41.25;39.25;;;;;2.32;54.76;101632.34;5062598;28;45503;-76
2022/03/07 07:07:05;;;;;;;;;59.00;45.25;;;;;2.42;55.54;101645.97;5060739;28;45394;-76
2022/03/07 07:09:31;;;;;;;;;58.50;49.25;;;;;2.43;55.45;101645.16;5058314;28;47039;-78
2022/03/07 07:11:56;;;;;;;;;61.75;48.75;;;;;2.16;55.05;101583.84;5056308;28;45480;-73
2022/03/07 07:14:22;;;;;;;;;48.00;42.75;;;;;2.18;54.59;101590.00;5058030;28;45468;-76
2022/03/07 07:16:47;;;;;;;;;53.50;46.75;;;;;2.34;55.13;101607.34;5041295;28;45525;-76
2022/03/07 07:19:13;;;;;;;;;57.25;46.00;;;;;2.59;54.28;101639.03;5040469;28;47970;-77
2022/03/07 07:21:40;;;;;;;;;55.50;43.75;;;;;2.63;54.28;101641.03;5058150;28;45414;-80
2022/03/07 07:24:06;;;;;;;;;54.50;44.25;;;;;2.66;54.42;101637.69;5041125;28;45636;-81
2022/03/07 07:26:32;;;;;;;;;59.75;48.25;;;;;2.73;54.36;101634.59;5059825;28;45691;-81
2022/03/07 07:28:57;;;;;;;;;62.00;46.00;;;;;2.78;53.84;101640.91;5058479;28;47248;-76
2022/03/07 07:31:23;;;;;;;;;56.50;48.75;;;;;2.79;53.79;101643.63;5057020;28;45930;-74
2022/03/07 07:33:49;;;;;;;;;58.00;48.00;;;;;2.87;53.50;101646.63;5056633;28;45424;-76
2022/03/07 07:36:14;;;;;;;;;63.00;50.50;;;;;2.75;53.31;101609.56;5057398;28;45559;-80
2022/03/07 07:38:40;;;;;;;;;59.00;46.75;;;;;2.84;53.49;101615.25;5057446;28;45509;-76
2022/03/07 07:41:05;;;;;;;;;56.25;43.75;;;;;3.03;52.88;101648.31;5057732;28;45482;-79
2022/03/07 07:43:31;;;;;;;;;45.67;44.00;;;;;2.83;52.86;101608.25;5055118;28;45451;-78
2022/03/07 07:45:56;;;;;;;;;52.67;44.33;;;;;3.10;53.01;101646.13;5056637;28;45526;-78
2022/03/07 07:48:22;;;;;;;;;54.00;46.00;;;;;3.20;53.06;101652.69;5056174;28;46090;-77
2022/03/07 07:50:47;;;;;;;;;57.75;45.00;;;;;3.27;52.50;101646.09;5057187;28;45498;-79
2022/03/07 07:53:12;;;;;;;;;61.67;45.67;;;;;3.28;52.04;101640.09;5040055;28;45456;-80
2022/03/07 07:55:38;;;;;;;;;59.00;45.50;;;;;3.34;52.39;101627.34;5057108;28;45398;-81
2022/03/07 07:58:03;;;;;;;;;49.33;45.00;;;;;3.44;51.38;101642.63;5055375;28;46078;-81
2022/03/07 08:00:30;;;;;;;;;58.33;44.67;;;;;3.45;51.40;101630.53;5056674;28;45467;-78
2022/03/07 08:02:56;;;;;;;;;58.67;45.00;;;;;3.56;51.96;101632.84;5056269;28;45497;-77
2022/03/07 08:05:21;;;;;;;;;55.67;44.67;;;;;3.41;51.70;101595.59;5056517;28;45454;-77
2022/03/07 08:07:47;;;;;;;;;61.67;45.33;;;;;3.64;50.87;101639.34;5057977;28;47101;-73
2022/03/07 08:10:14;;;;;;;;;56.00;47.00;;;;;3.42;51.12;101607.81;5056924;28;45385;-79
2022/03/07 08:12:40;;;;;;;;;47.33;43.00;;;;;3.56;50.78;101626.75;5058427;28;45414;-79
2022/03/07 08:15:11;;;;;;;;;62.67;50.33;;;;;3.60;51.15;101631.28;5058453;28;45333;-80
2022/03/07 08:17:38;;;;;;;;;54.00;46.67;;;;;3.62;50.81;101633.13;5060203;28;46297;-84
2022/03/07 08:20:07;;;;;;;;;51.67;45.67;;;;;3.69;50.00;101637.84;5060376;28;45413;-81
2022/03/07 08:22:33;;;;;;;;;54.33;46.00;;;;;3.33;49.49;101590.00;5058439;28;45463;-79
2022/03/07 08:24:58;;;;;;;;;55.00;48.00;;;;;3.60;50.30;101632.16;5059855;28;45564;-76
2022/03/07 08:27:23;;;;;;;;;61.00;49.33;;;;;3.75;50.18;101636.34;5068758;28;45350;-78
2022/03/07 08:29:49;;;;;;;;;48.33;44.67;;;;;3.84;49.46;101629.00;5058198;28;45491;-78
2022/03/07 08:32:14;;;;;;;;;58.33;48.67;;;;;3.86;49.15;101636.06;5057828;28;45385;-82
2022/03/07 08:34:39;;;;;;;;;53.67;45.33;;;;;3.95;49.19;101638.22;5059364;28;45650;-81
2022/03/07 08:37:05;;;;;;;;;62.33;46.67;;;;;4.07;49.08;101617.94;5062410;28;45379;-82
2022/03/07 08:39:30;;;;;;;;;60.33;47.00;;;;;4.16;48.60;101617.50;5055218;28;45521;-81
2022/03/07 08:41:56;;;;;;;;;46.00;39.33;;;;;4.25;48.50;101610.09;5063978;28;46526;-81
2022/03/07 08:44:21;;;;;;;;;50.67;44.00;;;;;4.36;48.15;101611.47;5039943;28;45548;-81
2022/03/07 08:46:47;;;;;;;;;56.67;46.00;;;;;4.42;47.51;101609.16;5056767;28;48007;-81
2022/03/07 08:49:13;;;;;;;;;54.33;46.33;;;;;4.44;47.47;101612.72;5064980;28;45565;-80
2022/03/07 08:51:40;;;;;;;;;50.33;42.67;;;;;4.48;46.86;101600.75;5059824;28;45461;-81
2022/03/07 08:54:06;;;;;;;;;52.33;41.33;;;;;4.21;47.34;101553.41;5065628;28;45505;-83
2022/03/07 08:56:31;;;;;;;;;48.67;42.00;;;;;4.50;46.80;101589.53;5058080;28;45676;-81
2022/03/07 08:58:57;;;;;;;;;54.00;44.00;;;;;4.44;46.29;101577.94;5060400;28;45500;-83
2022/03/07 09:01:22;;;;;;;;;63.00;48.00;;;;;4.23;45.70;101541.34;5058762;28;45879;-80
2022/03/07 09:03:48;;;;;;;;;60.33;45.33;;;;;4.76;45.61;101616.81;5059042;28;45365;-79
2022/03/07 09:06:14;;;;;;;;;47.33;41.67;;;;;4.67;45.47;101565.94;5060195;28;46204;-82
2022/03/07 09:08:39;;;;;;;;;50.67;43.00;;;;;5.03;45.09;101592.75;5065721;28;45415;-84
2022/03/07 09:11:05;;;;;;;;;49.33;43.67;;;;;8.67;40.48;101607.81;5058475;27;45390;-83
2022/03/07 09:13:30;;;;;;;;;55.33;43.33;;;;;12.65;33.27;101520.19;5058390;28;45375;-83
2022/03/07 09:15:55;;;;;;;;;50.00;44.00;;;;;16.33;27.86;101582.00;5061761;28;45295;-92
2022/03/07 09:18:22;;;;;;;;;55.33;46.00;;;;;17.46;25.75;101582.34;5057550;28;45388;-83
2022/03/07 09:20:47;;;;;;;;;55.00;42.67;;;;;15.70;27.33;101576.78;5056207;28;45438;-79
2022/03/07 09:23:13;;;;;;;;;51.75;42.75;;;;;14.37;28.14;101584.34;5056590;28;45417;-90
2022/03/07 09:25:38;;;;;;;;;50.75;40.75;;;;;13.48;29.70;101581.91;5063665;28;45412;-81
2022/03/07 09:28:05;;;;;;;;;48.50;38.75;;;;;12.87;29.29;101594.50;5061212;28;45465;-84
2022/03/07 09:30:32;;;;;;;;;49.00;41.25;;;;;13.22;30.31;101581.69;5063847;28;45466;-83
2022/03/07 09:33:03;;;;;;;;;45.75;39.50;;;;;16.55;26.42;101589.00;5043219;28;45522;-81
2022/03/07 09:35:29;;;;;;;;;47.75;38.50;;;;;17.52;25.70;101581.41;5056828;28;45542;-82
2022/03/07 09:37:54;;;;;;;;;49.75;39.50;;;;;19.97;22.56;101587.28;5071907;28;45401;-80
2022/03/07 09:40:20;;;;;;;;;44.00;38.75;;;;;22.11;20.17;101549.44;5056415;28;45539;-80
2022/03/07 09:42:46;;;;;;;;;45.00;38.50;;;;;23.95;18.61;101581.44;5055620;28;45424;-78
2022/03/07 09:45:13;;;;;;;;;45.25;38.00;;;;;24.47;17.80;101569.69;5056031;28;46588;-77
2022/03/07 09:47:40;;;;;;;;;44.75;39.00;;;;;25.37;16.17;101557.22;5056466;28;45448;-79
2022/03/07 09:50:06;;;;;;;;;45.25;38.00;;;;;25.60;16.35;101565.25;5063514;28;45824;-83
2022/03/07 09:52:32;;;;;;;;;41.00;36.25;;;;;25.86;15.84;101556.94;5059361;28;45406;-82
2022/03/07 09:54:58;;;;;;;;;40.00;34.25;;;;;27.20;15.53;101562.56;5055429;28;46196;-78
2022/03/07 09:57:24;;;;;;;;;45.50;38.00;;;;;28.53;14.51;101553.88;5055000;28;45375;-81
2022/03/07 09:59:51;;;;;;;;;51.00;42.50;;;;;28.87;13.35;101539.34;5055318;28;45358;-79
2022/03/07 10:02:22;;;;;;;;;42.00;36.67;;;;;30.25;12.86;101555.72;5055675;28;45452;-80
2022/03/07 10:04:48;;;;;;;;;48.67;39.33;;;;;31.19;12.04;101546.03;5060974;28;46227;-78
2022/03/07 10:07:14;;;;;;;;;35.00;33.67;;;;;32.17;11.73;101540.25;5047822;28;45379;-76
2022/03/07 10:09:39;;;;;;;;;40.67;34.67;;;;;32.29;11.55;101547.53;5055962;28;45490;-78
2022/03/07 10:12:06;;;;;;;;;43.00;34.00;;;;;33.01;11.27;101536.91;5055997;28;45471;-79
2022/03/07 10:14:44;;;;;;;;;39.00;35.00;;;;;33.75;10.74;101540.44;5056851;28;45944;-82
2022/03/07 10:17:24;;;;;;;;;40.67;35.33;;;;;33.91;10.43;101542.88;5055490;28;45398;-80
2022/03/07 10:19:52;;;;;;;;;47.33;39.00;;;;;34.50;10.02;101524.47;5055890;28;45579;-84
2022/03/07 10:22:22;;;;;;;;;40.67;34.33;;;;;34.43;9.82;101530.56;5054812;28;45484;-80
2022/03/07 10:24:56;;;;;;;;;32.00;31.67;;;;;34.51;9.22;101539.88;5053167;28;46165;-77
2022/03/07 10:27:29;;;;;;;;;37.75;33.50;;;;;34.98;9.48;101526.94;5059944;28;45288;-87
2022/03/07 10:29:55;;;;;;;;;36.25;33.75;;;;;35.22;9.07;101525.91;5058544;28;45486;-84
2022/03/07 10:32:21;;;;;;;;;38.75;34.50;;;;;35.94;8.91;101526.16;5056643;28;45422;-86
2022/03/07 10:34:46;;;;;;;;;39.00;34.75;;;;;36.29;8.84;101519.41;5058753;28;45310;-84
2022/03/07 10:37:12;;;;;;;;;40.50;35.50;;;;;36.13;8.67;101520.78;5055971;28;45454;-82
2022/03/07 10:39:45;;;;;;;;;33.50;31.00;;;;;35.06;9.15;101513.47;5051274;28;45496;-78
2022/03/07 10:42:16;;;;;;;;;35.25;31.75;;;;;35.12;9.41;101521.19;5054734;28;45438;-78
2022/03/07 10:44:41;;;;;;;;;33.25;30.50;;;;;34.59;9.29;101498.22;5054498;28;46259;-80
2022/03/07 10:47:09;;;;;;;;;43.00;35.25;;;;;34.18;8.99;101515.22;5056096;28;45319;-83
2022/03/07 10:49:35;;;;;;;;;35.00;33.00;;;;;34.26;9.36;101501.81;5076235;28;45501;-83
2022/03/07 10:52:04;;;;;;;;;34.00;32.25;;;;;34.70;9.42;101503.69;5059530;28;45420;-81
2022/03/07 10:54:36;;;;;;;;;34.75;32.75;;;;;34.20;9.39;101502.28;5055652;28;46952;-77
2022/03/07 10:57:02;;;;;;;;;36.25;31.75;;;;;34.28;9.27;101494.34;5055557;28;45220;-78
2022/03/07 10:59:30;;;;;;;;;37.25;33.50;;;;;33.82;9.14;101499.84;5060085;28;45638;-73
2022/03/07 11:02:06;;;;;;;;;35.25;33.00;;;;;33.31;9.35;101502.81;5054773;28;45675;-72
2022/03/07 11:04:32;;;;;;;;;32.75;31.25;;;;;32.88;9.42;101489.69;5055942;28;47497;-84
2022/03/07 11:06:58;;;;;;;;;37.75;33.50;;;;;32.72;9.71;101498.09;5059604;28;45732;-83
2022/03/07 11:09:23;;;;;;;;;34.00;30.75;;;;;32.52;9.45;101493.25;5060291;28;45450;-86
2022/03/07 11:11:50;;;;;;;;;38.00;33.50;;;;;32.62;9.72;101488.84;5058248;28;45910;-84
2022/03/07 11:14:17;;;;;;;;;35.00;30.25;;;;;32.13;9.58;101491.50;5058679;28;46206;-87